Time;durP1;ratioP1;P1;durP2;ratioP2;P2;SDS_P1;SDS_P2;PMS_P1;PMS_P2;Temp;Humidity;BMP_temperature;BMP_pressure;BME280_temperature;BME280_humidity;BME280_pressure;Samples;Min_cycle;Max_cycle;Signal;HPM_P1;HPM_P2
2022/10/03 00:01:11;;;;;;;8.47;1.33;;;;;;;11.37;100.00;101262.53;5052622;28;20465;-72
2022/10/03 00:03:45;;;;;;;8.77;1.30;;;;;;;11.34;100.00;101274.78;5052755;28;20470;-71
2022/10/03 00:06:15;;;;;;;5.43;1.10;;;;;;;11.42;100.00;101280.63;5054021;28;20484;-71
2022/10/03 00:08:57;;;;;;;4.43;1.20;;;;;;;11.49;100.00;101283.81;5053702;28;20458;-71
2022/10/03 00:11:32;;;;;;;10.97;1.53;;;;;;;11.46;100.00;101287.09;5050816;28;20474;-70
2022/10/03 00:14:05;;;;;;;5.50;2.00;;;;;;;11.50;100.00;101282.72;5053592;28;20552;-72
2022/10/03 00:16:41;;;;;;;7.50;1.83;;;;;;;11.57;100.00;101280.47;5051754;28;20811;-70
2022/10/03 00:19:17;;;;;;;10.83;1.47;;;;;;;11.63;100.00;101287.44;5053651;28;20470;-70
2022/10/03 00:21:59;;;;;;;14.53;2.10;;;;;;;11.59;100.00;101280.97;5053365;28;20896;-71
2022/10/03 00:24:38;;;;;;;16.70;2.10;;;;;;;11.64;100.00;101291.75;5053861;28;20986;-70
2022/10/03 00:27:10;;;;;;;6.13;1.30;;;;;;;11.66;100.00;101292.28;5054263;28;20443;-71
2022/10/03 00:29:54;;;;;;;11.97;1.80;;;;;;;11.61;100.00;101300.50;5054210;28;20422;-72
2022/10/03 00:32:42;;;;;;;4.30;0.77;;;;;;;11.65;100.00;101298.03;5053804;28;20868;-71
2022/10/03 00:35:23;;;;;;;16.13;1.30;;;;;;;11.71;100.00;101299.56;5054014;28;20465;-70
2022/10/03 00:38:04;;;;;;;7.23;1.40;;;;;;;11.75;100.00;101295.16;5053802;28;20903;-71
2022/10/03 00:41:32;;;;;;;20.20;1.57;;;;;;;11.83;100.00;101299.97;5052462;28;20482;-71
2022/10/03 00:44:43;;;;;;;9.43;1.27;;;;;;;11.84;100.00;101296.97;5053839;28;20450;-71
2022/10/03 00:47:42;;;;;;;10.43;1.63;;;;;;;11.75;100.00;101298.69;5052261;28;20454;-72
2022/10/03 00:50:31;;;;;;;8.73;2.37;;;;;;;11.75;100.00;101295.97;5018192;28;20474;-71
2022/10/03 00:53:15;;;;;;;10.90;1.33;;;;;;;11.70;100.00;101303.38;5051488;28;20474;-71
2022/10/03 00:55:58;;;;;;;4.80;1.50;;;;;;;11.63;100.00;101311.84;5052809;28;20485;-72
2022/10/03 00:58:43;;;;;;;10.73;1.77;;;;;;;11.67;100.00;101310.19;5052626;28;20527;-71
2022/10/03 01:01:34;;;;;;;6.50;1.27;;;;;;;11.60;100.00;101312.47;5041512;28;20454;-71
2022/10/03 01:04:20;;;;;;;8.43;1.40;;;;;;;11.63;100.00;101311.84;5051340;28;20850;-71
2022/10/03 01:07:02;;;;;;;4.00;1.00;;;;;;;11.63;100.00;101314.56;5044118;28;20496;-70
2022/10/03 01:09:48;;;;;;;6.70;1.90;;;;;;;11.57;100.00;101319.25;5052467;28;20454;-71
2022/10/03 01:12:35;;;;;;;9.93;2.37;;;;;;;11.54;100.00;101319.03;5052058;28;20520;-71
2022/10/03 01:15:15;;;;;;;4.70;1.30;;;;;;;11.60;100.00;101320.59;5033040;28;20471;-74
2022/10/03 01:17:59;;;;;;;6.03;1.10;;;;;;;11.54;100.00;101335.31;5038321;28;20515;-71
2022/10/03 01:20:31;;;;;;;5.37;1.37;;;;;;;11.60;100.00;101329.53;5051899;28;20457;-70
2022/10/03 01:23:34;;;;;;;7.23;1.77;;;;;;;11.62;100.00;101327.34;5052034;28;20462;-71
2022/10/03 01:26:12;;;;;;;7.27;1.40;;;;;;;11.66;100.00;101330.28;5051063;28;20520;-70
2022/10/03 01:31:38;;;;;;;6.73;1.47;;;;;;;11.68;100.00;101328.06;5053015;28;20608;-70
2022/10/03 01:34:16;;;;;;;7.37;2.00;;;;;;;11.68;100.00;101336.22;5050420;28;20503;-70
2022/10/03 01:36:56;;;;;;;16.23;1.60;;;;;;;11.70;100.00;101344.91;5052004;28;20473;-71
2022/10/03 01:39:28;;;;;;;5.03;0.80;;;;;;;11.66;100.00;101337.63;5051237;28;20457;-71
2022/10/03 01:42:00;;;;;;;12.00;1.40;;;;;;;11.68;100.00;101343.56;5053136;28;20423;-69
2022/10/03 01:44:39;;;;;;;19.70;1.53;;;;;;;11.69;100.00;101339.75;5051679;28;20488;-70
2022/10/03 01:47:17;;;;;;;7.03;1.97;;;;;;;11.72;100.00;101339.16;5033369;28;20423;-71
2022/10/03 01:49:48;;;;;;;5.80;1.23;;;;;;;11.74;100.00;101340.50;5047415;28;20544;-70
2022/10/03 01:52:23;;;;;;;3.70;1.37;;;;;;;11.77;100.00;101333.66;5050093;28;20520;-72
2022/10/03 01:54:58;;;;;;;12.37;2.33;;;;;;;11.72;100.00;101345.41;5046076;28;21009;-72
2022/10/03 01:57:34;;;;;;;5.40;1.43;;;;;;;11.82;100.00;101352.59;5052150;28;20515;-72
2022/10/03 02:00:06;;;;;;;7.70;1.90;;;;;;;11.86;100.00;101349.06;5052020;28;20462;-71
2022/10/03 02:02:39;;;;;;;7.97;1.50;;;;;;;11.85;100.00;101357.50;5051989;28;20460;-72
2022/10/03 02:05:12;;;;;;;4.73;1.27;;;;;;;11.97;100.00;101360.59;5050603;28;21046;-71
2022/10/03 02:07:47;;;;;;;6.90;1.73;;;;;;;12.10;100.00;101364.50;5037886;28;20545;-72
2022/10/03 02:10:24;;;;;;;10.23;1.13;;;;;;;12.10;100.00;101356.38;5052377;28;20454;-71
2022/10/03 02:13:01;;;;;;;6.80;1.70;;;;;;;12.12;100.00;101367.72;5051599;28;20474;-69
2022/10/03 02:15:35;;;;;;;8.30;1.67;;;;;;;12.15;100.00;101361.72;5052258;28;20470;-70
2022/10/03 02:18:13;;;;;;;5.73;1.67;;;;;;;12.08;100.00;101372.13;5051421;28;20862;-68
2022/10/03 02:20:45;;;;;;;8.83;1.77;;;;;;;12.12;100.00;101365.00;5051774;28;20458;-69
2022/10/03 02:23:25;;;;;;;4.20;1.43;;;;;;;12.17;100.00;101373.09;5050172;28;20458;-70
2022/10/03 02:26:04;;;;;;;5.23;1.40;;;;;;;12.18;100.00;101361.16;5051290;28;20907;-69
2022/10/03 02:28:58;;;;;;;4.93;1.27;;;;;;;12.11;100.00;101369.66;5054721;28;22277;-70
2022/10/03 02:31:53;;;;;;;5.40;1.77;;;;;;;12.19;100.00;101368.19;5056406;28;20427;-69
2022/10/03 02:34:55;;;;;;;15.77;2.20;;;;;;;12.23;100.00;101365.69;5040924;28;21065;-69
2022/10/03 02:37:38;;;;;;;7.47;1.20;;;;;;;12.29;100.00;101367.25;5049316;28;20587;-69
2022/10/03 02:40:38;;;;;;;4.47;1.33;;;;;;;12.23;100.00;101363.78;5044011;28;20540;-69
2022/10/03 02:43:47;;;;;;;5.13;0.87;;;;;;;12.24;100.00;101364.59;5055231;28;20516;-69
2022/10/03 02:46:53;;;;;;;16.50;2.27;;;;;;;12.26;100.00;101367.81;5056431;28;20462;-69
2022/10/03 02:49:53;;;;;;;15.53;1.77;;;;;;;12.04;100.00;101371.94;5054954;28;20445;-68
2022/10/03 02:52:44;;;;;;;4.87;1.40;;;;;;;12.10;100.00;101378.09;5054318;28;20994;-67
2022/10/03 02:55:40;;;;;;;14.77;1.60;;;;;;;12.08;100.00;101372.94;5055274;28;20486;-69
2022/10/03 02:58:51;;;;;;;4.63;1.20;;;;;;;11.98;100.00;101375.78;5054730;28;20808;-66
2022/10/03 03:01:49;;;;;;;7.80;1.83;;;;;;;11.99;100.00;101384.75;5055885;28;20930;-67
2022/10/03 03:04:45;;;;;;;5.13;1.50;;;;;;;11.95;100.00;101375.56;5054105;28;20481;-66
2022/10/03 03:07:37;;;;;;;6.90;1.00;;;;;;;11.95;100.00;101383.69;5051734;28;20463;-68
2022/10/03 03:10:29;;;;;;;11.13;1.57;;;;;;;12.00;100.00;101387.19;5055738;28;20435;-67
2022/10/03 03:13:21;;;;;;;7.47;1.50;;;;;;;11.98;100.00;101388.56;5054724;28;20532;-67
2022/10/03 03:16:20;;;;;;;12.50;1.77;;;;;;;11.99;100.00;101390.16;5035688;28;20463;-67
2022/10/03 03:19:03;;;;;;;5.30;1.47;;;;;;;11.79;100.00;101392.00;5048157;28;20474;-67
2022/10/03 03:21:37;;;;;;;10.70;2.10;;;;;;;11.83;100.00;101392.28;5053513;28;20576;-68
2022/10/03 03:24:39;;;;;;;6.43;2.10;;;;;;;11.83;100.00;101393.09;5053535;28;20507;-68
2022/10/03 03:27:21;;;;;;;12.63;2.00;;;;;;;11.83;100.00;101395.00;5037748;28;20470;-68
2022/10/03 03:29:58;;;;;;;5.50;1.40;;;;;;;11.90;100.00;101398.16;5055501;28;20513;-68
2022/10/03 03:32:34;;;;;;;4.03;1.10;;;;;;;11.89;100.00;101399.25;5053388;28;20474;-67
2022/10/03 03:35:14;;;;;;;6.63;1.70;;;;;;;11.95;100.00;101395.38;5054140;28;20466;-68
2022/10/03 03:37:51;;;;;;;9.57;2.27;;;;;;;11.92;100.00;101401.41;5052877;28;20490;-67
2022/10/03 03:40:37;;;;;;;10.23;1.80;;;;;;;11.96;100.00;101401.63;5054057;28;20970;-67
2022/10/03 03:43:19;;;;;;;5.23;1.80;;;;;;;11.93;100.00;101396.78;5054023;28;20462;-67
2022/10/03 03:46:05;;;;;;;8.50;1.07;;;;;;;11.93;100.00;101404.91;5054807;28;20474;-68
2022/10/03 03:49:01;;;;;;;13.67;1.80;;;;;;;11.94;100.00;101403.81;5053667;28;20482;-67
2022/10/03 03:51:33;;;;;;;5.53;1.13;;;;;;;11.95;100.00;101402.72;5021082;28;20446;-70
2022/10/03 03:54:36;;;;;;;7.53;1.90;;;;;;;11.83;100.00;101409.38;5053753;28;20557;-70
2022/10/03 03:57:20;;;;;;;10.30;1.40;;;;;;;11.93;100.00;101413.88;5035748;28;20489;-71
2022/10/03 04:00:04;;;;;;;15.83;2.03;;;;;;;11.99;100.00;101417.31;5053750;28;20978;-70
2022/10/03 04:02:43;;;;;;;6.00;1.60;;;;;;;11.99;100.00;101417.31;5053810;28;20505;-71
2022/10/03 04:05:25;;;;;;;16.33;2.00;;;;;;;11.97;100.00;101414.09;5055583;28;20543;-71
2022/10/03 04:08:11;;;;;;;7.40;1.70;;;;;;;11.99;100.00;101418.13;5054005;28;20454;-70
2022/10/03 04:10:52;;;;;;;8.70;1.20;;;;;;;11.97;100.00;101419.53;5052545;28;20836;-71
2022/10/03 04:13:39;;;;;;;5.17;1.20;;;;;;;11.97;100.00;101431.19;5053142;28;20470;-72
2022/10/03 04:19:23;;;;;;;6.93;1.03;;;;;;;11.98;100.00;101429.28;5053442;28;20536;-72
2022/10/03 04:22:01;;;;;;;3.50;0.90;;;;;;;11.99;100.00;101429.00;5054239;28;20438;-74
2022/10/03 04:24:43;;;;;;;3.67;1.17;;;;;;;12.06;100.00;101434.09;5038689;28;20867;-73
2022/10/03 04:27:32;;;;;;;9.93;1.40;;;;;;;12.00;100.00;101425.19;5052977;28;20466;-70
2022/10/03 04:30:07;;;;;;;19.87;2.00;;;;;;;12.01;100.00;101431.44;5054260;28;20480;-70
2022/10/03 04:32:56;;;;;;;8.53;1.47;;;;;;;12.01;100.00;101434.16;5052914;28;20527;-71
2022/10/03 04:35:34;;;;;;;6.20;1.37;;;;;;;12.00;100.00;101435.25;5052726;28;20489;-73
2022/10/03 04:38:11;;;;;;;3.90;1.30;;;;;;;12.04;100.00;101436.25;5041079;28;20625;-69
2022/10/03 04:40:48;;;;;;;10.60;1.73;;;;;;;12.01;100.00;101434.16;5053255;28;20461;-70
2022/10/03 04:43:28;;;;;;;7.83;1.50;;;;;;;11.98;100.00;101438.25;5053039;28;20461;-70
2022/10/03 04:46:10;;;;;;;7.77;1.37;;;;;;;12.04;100.00;101442.53;5044993;28;20509;-70
2022/10/03 04:48:40;;;;;;;5.97;1.47;;;;;;;12.00;100.00;101441.50;5038607;28;20471;-70
2022/10/03 04:51:18;;;;;;;4.87;1.23;;;;;;;12.02;100.00;101433.03;5052963;28;20466;-69
2022/10/03 04:53:53;;;;;;;9.30;1.80;;;;;;;12.04;100.00;101439.81;5051760;28;20828;-70
2022/10/03 04:56:39;;;;;;;7.30;1.50;;;;;;;12.02;100.00;101441.19;5051911;28;20506;-66
2022/10/03 04:59:24;;;;;;;5.77;1.60;;;;;;;12.02;100.00;101443.91;5052247;28;20477;-67
2022/10/03 05:02:00;;;;;;;3.90;1.23;;;;;;;12.04;100.00;101438.97;5052430;28;20484;-70
2022/10/03 05:04:33;;;;;;;7.73;1.37;;;;;;;12.01;100.00;101442.28;5033170;28;20907;-67
2022/10/03 05:07:10;;;;;;;4.57;1.23;;;;;;;12.00;100.00;101457.78;5046038;28;20469;-65
2022/10/03 05:09:46;;;;;;;4.67;1.10;;;;;;;12.04;100.00;101460.69;5051384;28;21018;-69
2022/10/03 05:12:17;;;;;;;13.90;2.10;;;;;;;12.02;100.00;101465.63;5051535;28;20530;-66
2022/10/03 05:15:02;;;;;;;5.90;1.63;;;;;;;11.99;100.00;101467.00;5052350;28;20862;-68
2022/10/03 05:17:45;;;;;;;11.43;1.70;;;;;;;11.96;100.00;101472.22;5049568;28;20454;-68
2022/10/03 05:20:22;;;;;;;6.60;1.40;;;;;;;11.93;100.00;101467.34;5052583;28;20454;-68
2022/10/03 05:22:59;;;;;;;5.53;1.43;;;;;;;11.95;100.00;101470.59;5052378;28;20556;-67
2022/10/03 05:25:34;;;;;;;4.53;0.77;;;;;;;11.98;100.00;101467.31;5052439;28;20493;-67
2022/10/03 05:28:12;;;;;;;6.53;1.40;;;;;;;11.94;100.00;101468.97;5052307;28;20553;-67
2022/10/03 05:30:48;;;;;;;9.17;1.47;;;;;;;11.94;100.00;101475.19;5051636;28;20454;-67
2022/10/03 05:33:25;;;;;;;4.63;1.43;;;;;;;11.98;100.00;101481.69;5052089;28;20473;-67
2022/10/03 05:36:05;;;;;;;4.10;1.07;;;;;;;12.04;100.00;101485.97;5052171;28;20490;-67
2022/10/03 05:38:58;;;;;;;6.20;2.00;;;;;;;11.93;100.00;101480.94;5051347;28;20454;-67
2022/10/03 05:41:28;;;;;;;3.83;1.17;;;;;;;11.97;100.00;101473.84;5052369;28;20462;-67
2022/10/03 05:44:03;;;;;;;7.33;1.40;;;;;;;12.02;100.00;101484.63;5051730;28;20485;-68
2022/10/03 05:46:40;;;;;;;4.43;1.10;;;;;;;12.05;100.00;101481.34;5052258;28;20454;-67
2022/10/03 05:49:27;;;;;;;13.80;2.10;;;;;;;12.08;100.00;101481.56;5050128;28;20462;-67
2022/10/03 05:52:11;;;;;;;8.77;1.60;;;;;;;11.97;100.00;101482.78;5035771;28;20990;-67
2022/10/03 05:55:05;;;;;;;7.80;2.50;;;;;;;11.91;100.00;101496.69;5052827;28;20486;-67
2022/10/03 05:58:02;;;;;;;5.57;1.40;;;;;;;11.97;100.00;101499.06;5049074;28;20520;-67
2022/10/03 06:00:41;;;;;;;3.30;0.90;;;;;;;11.98;100.00;101508.03;5051183;28;20515;-67
2022/10/03 06:03:39;;;;;;;4.60;1.73;;;;;;;12.02;100.00;101506.34;5056011;28;20493;-67
2022/10/03 06:06:21;;;;;;;6.43;1.40;;;;;;;12.00;100.00;101509.38;5054581;28;20486;-68
2022/10/03 06:08:55;;;;;;;4.67;1.03;;;;;;;11.95;100.00;101514.03;5054907;28;20486;-69
2022/10/03 06:11:39;;;;;;;8.17;1.43;;;;;;;11.98;100.00;101514.25;5052543;28;20457;-67
2022/10/03 06:14:28;;;;;;;4.40;1.70;;;;;;;11.87;100.00;101518.19;5053675;28;20539;-67
2022/10/03 06:17:07;;;;;;;7.73;1.40;;;;;;;11.86;100.00;101522.81;5056243;28;20422;-68
2022/10/03 06:19:48;;;;;;;6.90;1.60;;;;;;;11.94;100.00;101523.28;5056752;28;20514;-68
2022/10/03 06:22:51;;;;;;;5.07;1.30;;;;;;;12.01;100.00;101531.91;5055639;28;20914;-66
2022/10/03 06:25:51;;;;;;;3.80;0.97;;;;;;;12.09;100.00;101532.09;5036965;28;20456;-69
2022/10/03 06:28:50;;;;;;;5.73;1.60;;;;;;;12.04;100.00;101539.44;5050962;28;20454;-70
2022/10/03 06:31:53;;;;;;;7.10;1.70;;;;;;;12.08;100.00;101533.16;5056527;28;20465;-68
2022/10/03 06:35:06;;;;;;;4.77;1.53;;;;;;;12.19;100.00;101533.88;5036329;28;20501;-71
2022/10/03 06:38:09;;;;;;;5.43;0.90;;;;;;;12.20;100.00;101542.81;5044843;28;20503;-68
2022/10/03 06:41:10;;;;;;;5.20;1.20;;;;;;;12.19;100.00;101546.66;5055332;28;20457;-68
2022/10/03 06:43:58;;;;;;;7.63;1.30;;;;;;;12.27;100.00;101549.53;5055214;28;20469;-69
2022/10/03 06:46:50;;;;;;;6.33;1.10;;;;;;;12.31;100.00;101544.34;5056102;28;20426;-68
2022/10/03 06:49:50;;;;;;;4.13;1.23;;;;;;;12.30;100.00;101538.09;5055673;28;20441;-67
2022/10/03 06:52:43;;;;;;;4.40;1.20;;;;;;;12.25;100.00;101551.72;5054293;28;20462;-67
2022/10/03 06:55:49;;;;;;;13.23;1.40;;;;;;;12.26;100.00;101541.66;5054687;28;20482;-68
2022/10/03 06:58:41;;;;;;;6.20;1.10;;;;;;;12.21;100.00;101539.81;5055011;28;20533;-68
2022/10/03 07:01:47;;;;;;;5.43;1.30;;;;;;;12.32;100.00;101552.19;5055904;28;20770;-68
2022/10/03 07:04:34;;;;;;;7.97;1.40;;;;;;;12.29;100.00;101552.78;5054370;28;20927;-66
2022/10/03 07:07:28;;;;;;;5.20;1.50;;;;;;;12.35;100.00;101546.19;5055828;28;20426;-67
2022/10/03 07:10:19;;;;;;;4.97;1.20;;;;;;;12.34;100.00;101565.47;5053005;28;21023;-68
2022/10/03 07:13:21;;;;;;;4.97;1.60;;;;;;;12.44;100.00;101567.28;5054347;28;20516;-67
2022/10/03 07:16:01;;;;;;;8.77;1.50;;;;;;;12.62;100.00;101577.41;5051892;28;20978;-68
2022/10/03 07:18:55;;;;;;;8.20;1.30;;;;;;;12.74;99.44;101594.09;5053404;28;20997;-67
2022/10/03 07:21:43;;;;;;;8.43;1.37;;;;;;;12.63;99.68;101587.19;5055443;28;20442;-68
2022/10/03 07:24:32;;;;;;;7.73;1.17;;;;;;;12.59;99.06;101576.06;5035589;28;20431;-66
2022/10/03 07:27:19;;;;;;;5.63;1.00;;;;;;;12.70;98.81;101584.91;5039757;28;20458;-69
2022/10/03 07:30:04;;;;;;;8.60;1.40;;;;;;;12.76;98.42;101581.03;5054466;28;20832;-68
2022/10/03 07:32:56;;;;;;;5.57;1.00;;;;;;;12.89;97.69;101582.25;5052414;28;20464;-68
2022/10/03 07:39:02;;;;;;;6.90;1.40;;;;;;;12.94;97.65;101597.69;5054040;28;20497;-67
2022/10/03 07:41:56;;;;;;;6.70;1.30;;;;;;;13.08;97.44;101590.41;5050332;28;20466;-67
2022/10/03 07:44:47;;;;;;;10.20;1.40;;;;;;;13.12;95.98;101596.88;5053715;28;20516;-69
2022/10/03 07:47:51;;;;;;;8.40;1.43;;;;;;;13.25;94.77;101596.19;5053437;28;20674;-67
2022/10/03 07:50:46;;;;;;;6.90;1.17;;;;;;;13.33;95.42;101603.69;5050575;28;20492;-68
2022/10/03 07:53:28;;;;;;;8.20;2.00;;;;;;;13.26;95.64;101613.31;5034722;28;20884;-68
2022/10/03 07:56:04;;;;;;;11.40;1.63;;;;;;;13.33;95.17;101609.13;5046066;28;20482;-68
2022/10/03 07:58:44;;;;;;;6.43;1.50;;;;;;;13.41;94.29;101617.72;5053914;28;20470;-68
2022/10/03 08:01:44;;;;;;;5.17;0.87;;;;;;;13.45;94.04;101624.19;5052072;28;20462;-69
2022/10/03 08:04:50;;;;;;;13.47;2.03;;;;;;;13.51;93.68;101625.75;5043901;28;20453;-67
2022/10/03 08:07:41;;;;;;;11.63;1.50;;;;;;;13.60;92.95;101626.72;5029043;28;20951;-68
2022/10/03 08:10:20;;;;;;;8.80;1.53;;;;;;;13.64;92.96;101627.75;5054894;28;20476;-68
2022/10/03 08:13:09;;;;;;;7.93;1.93;;;;;;;13.79;92.04;101640.28;5053307;28;20466;-67
2022/10/03 08:15:50;;;;;;;5.87;1.17;;;;;;;13.73;91.86;101633.31;5052187;28;20571;-70
2022/10/03 08:18:50;;;;;;;3.80;1.07;;;;;;;13.82;89.89;101642.44;5051079;28;20466;-70
2022/10/03 08:21:21;;;;;;;11.67;1.70;;;;;;;13.71;90.98;101636.31;5054446;28;20442;-67
2022/10/03 08:24:27;;;;;;;6.40;0.93;;;;;;;13.65;91.21;101637.53;5051354;28;20462;-68
2022/10/03 08:27:13;;;;;;;11.00;1.67;;;;;;;13.78;90.49;101647.66;5051627;28;21110;-67
2022/10/03 08:30:06;;;;;;;18.73;1.57;;;;;;;13.78;90.62;101639.50;5050054;28;20465;-68
2022/10/03 08:33:00;;;;;;;7.33;1.50;;;;;;;13.88;90.96;101638.50;5053255;28;20545;-67
2022/10/03 08:36:06;;;;;;;9.57;1.13;;;;;;;14.03;90.28;101638.28;5053933;28;20461;-68
2022/10/03 08:39:20;;;;;;;10.13;1.40;;;;;;;14.01;89.68;101637.75;5024450;28;20458;-69
2022/10/03 08:42:26;;;;;;;6.13;0.80;;;;;;;13.96;91.45;101637.03;4972194;28;20967;-68
2022/10/03 08:45:07;;;;;;;3.47;0.77;;;;;;;14.03;91.51;101651.06;4961373;28;20477;-69
2022/10/03 08:48:09;;;;;;;9.13;0.90;;;;;;;13.88;90.16;101650.22;4971271;28;20477;-69
2022/10/03 08:50:57;;;;;;;3.63;1.00;;;;;;;14.00;90.20;101659.84;4972568;28;20859;-69
2022/10/03 08:54:04;;;;;;;10.23;1.30;;;;;;;14.22;88.24;101657.28;4956261;28;20965;-68
2022/10/03 08:56:48;;;;;;;16.27;1.50;;;;;;;14.30;89.23;101653.88;4971401;28;20458;-69
2022/10/03 08:59:50;;;;;;;17.33;2.00;;;;;;;14.38;86.44;101666.81;4972212;28;20520;-69
2022/10/03 09:02:48;;;;;;;3.90;0.93;;;;;;;14.37;86.91;101665.19;4970949;28;20461;-69
2022/10/03 09:05:45;;;;;;;9.90;1.37;;;;;;;14.28;86.64;101664.25;4970363;28;20905;-70
2022/10/03 09:08:37;;;;;;;5.63;1.20;;;;;;;14.25;86.63;101656.69;4970800;28;20458;-70
2022/10/03 09:11:40;;;;;;;7.30;1.10;;;;;;;14.18;87.60;101659.00;4971106;28;20917;-69
2022/10/03 09:14:36;;;;;;;11.50;1.57;;;;;;;14.33;85.99;101656.00;5053470;28;20488;-69
2022/10/03 09:17:36;;;;;;;19.37;1.70;;;;;;;14.50;85.48;101660.91;5052979;28;20462;-69
2022/10/03 09:20:30;;;;;;;7.00;1.50;;;;;;;14.51;86.17;101653.53;5052566;28;20488;-69
2022/10/03 09:23:19;;;;;;;16.13;1.80;;;;;;;14.58;86.55;101653.97;5053502;28;20431;-69
2022/10/03 09:26:08;;;;;;;4.30;0.97;;;;;;;14.63;85.11;101656.59;5033388;28;20466;-70
2022/10/03 09:29:00;;;;;;;6.20;1.60;;;;;;;14.82;84.95;101654.56;5036372;28;20452;-71
2022/10/03 09:31:59;;;;;;;13.40;2.00;;;;;;;14.79;84.70;101652.47;5033488;28;20436;-70
2022/10/03 09:34:50;;;;;;;4.03;1.07;;;;;;;14.87;85.75;101657.22;5050709;28;20548;-72
2022/10/03 09:37:47;;;;;;;4.10;1.20;;;;;;;15.10;83.97;101652.63;5052316;28;20458;-69
2022/10/03 09:40:54;;;;;;;5.67;1.17;;;;;;;15.18;83.30;101663.94;5050716;28;20450;-69
2022/10/03 09:43:59;;;;;;;10.07;1.50;;;;;;;15.29;83.21;101662.63;5052582;28;20465;-69
2022/10/03 09:50:08;;;;;;;6.90;1.43;;;;;;;15.53;83.86;101670.53;5050917;28;20541;-70
2022/10/03 09:53:01;;;;;;;14.23;1.73;;;;;;;15.64;82.03;101672.78;5033204;28;20432;-69
2022/10/03 09:55:53;;;;;;;5.00;0.93;;;;;;;15.55;81.88;101679.25;5032846;28;20913;-69
2022/10/03 09:59:00;;;;;;;5.73;0.80;;;;;;;15.44;81.27;101677.84;5033855;28;20443;-68
2022/10/03 10:01:30;;;;;;;4.50;1.40;;;;;;;15.47;81.99;101669.84;4993467;28;20552;-69
2022/10/03 10:04:34;;;;;;;4.40;0.77;;;;;;;15.61;80.61;101669.81;5052891;28;20446;-68
2022/10/03 10:07:41;;;;;;;6.67;1.40;;;;;;;15.40;81.29;101669.44;5052146;28;20465;-68
2022/10/03 10:10:44;;;;;;;13.13;1.57;;;;;;;15.53;80.98;101667.81;5051957;28;20912;-71
2022/10/03 10:13:54;;;;;;;5.13;1.20;;;;;;;15.42;80.95;101675.44;5032762;28;20928;-68
2022/10/03 10:17:08;;;;;;;12.57;1.30;;;;;;;15.36;82.50;101672.00;5042338;28;20536;-68
2022/10/03 10:19:52;;;;;;;5.43;0.93;;;;;;;15.49;81.87;101680.47;5044055;28;20465;-69
2022/10/03 10:23:04;;;;;;;10.53;1.20;;;;;;;15.58;81.46;101664.97;5051877;28;20523;-69
2022/10/03 10:26:09;;;;;;;14.63;1.07;;;;;;;15.78;79.35;101671.91;5025177;28;20478;-69
2022/10/03 10:29:11;;;;;;;5.23;0.97;;;;;;;15.88;80.53;101671.66;5052992;28;20422;-68
2022/10/03 10:32:26;;;;;;;4.30;1.03;;;;;;;15.99;79.81;101664.84;5039177;28;20556;-69
2022/10/03 10:35:36;;;;;;;7.27;1.10;;;;;;;16.24;78.92;101671.59;5044045;28;20498;-69
2022/10/03 10:38:24;;;;;;;6.60;0.93;;;;;;;16.32;77.85;101673.56;5051881;28;20512;-68
2022/10/03 10:41:28;;;;;;;18.10;1.37;;;;;;;16.04;79.14;101666.66;5052918;28;20470;-67
2022/10/03 10:44:35;;;;;;;7.20;1.50;;;;;;;16.05;80.42;101651.84;5050098;28;20465;-69
2022/10/03 10:47:12;;;;;;;5.07;1.00;;;;;;;16.09;81.07;101664.59;5052414;28;20818;-68
2022/10/03 10:50:26;;;;;;;4.33;1.17;;;;;;;16.24;78.17;101663.38;5055573;28;20955;-69
2022/10/03 10:53:26;;;;;;;3.60;0.80;;;;;;;16.28;78.13;101667.09;4974222;28;20458;-69
2022/10/03 10:56:41;;;;;;;6.20;1.10;;;;;;;16.30;78.94;101664.88;5054526;28;21009;-69
2022/10/03 10:59:59;;;;;;;5.90;1.30;;;;;;;16.30;78.24;101669.53;5054291;28;20454;-70
2022/10/03 11:02:59;;;;;;;3.00;0.50;;;;;;;16.20;78.87;101673.31;5056122;28;20422;-69
2022/10/03 11:05:41;;;;;;;6.00;1.10;;;;;;;16.25;79.34;101658.75;5054747;28;20539;-69
2022/10/03 11:08:40;;;;;;;3.50;0.90;;;;;;;16.24;81.02;101665.31;5055031;28;20469;-70
2022/10/03 11:11:51;;;;;;;5.43;0.80;;;;;;;16.24;82.89;101666.13;5055075;28;20461;-72
2022/10/03 11:15:00;;;;;;;3.87;0.97;;;;;;;16.24;82.85;101660.66;5053234;28;20632;-71
2022/10/03 11:17:59;;;;;;;3.13;0.70;;;;;;;16.10;83.87;101676.31;4982160;28;20449;-71
2022/10/03 11:21:09;;;;;;;4.90;0.80;;;;;;;15.97;84.19;101669.00;5054797;28;20824;-69
2022/10/03 11:24:08;;;;;;;6.20;1.20;;;;;;;15.91;86.00;101668.31;5055283;28;20912;-68
2022/10/03 11:27:18;;;;;;;3.97;0.87;;;;;;;15.65;87.52;101684.50;5054401;28;20446;-69
2022/10/03 11:30:14;;;;;;;5.10;0.77;;;;;;;15.44;89.81;101677.84;5052506;28;20963;-70
2022/10/03 11:33:20;;;;;;;5.53;0.80;;;;;;;15.27;91.20;101670.28;5021737;28;20442;-71
2022/10/03 11:36:27;;;;;;;7.40;1.50;;;;;;;15.28;92.67;101678.19;5051335;28;20501;-71
2022/10/03 11:39:03;;;;;;;7.80;2.10;;;;;;;15.08;94.84;101671.22;5054538;28;20796;-73
2022/10/03 11:41:44;;;;;;;4.10;1.30;;;;;;;15.13;95.47;101675.78;5035564;28;20435;-71
2022/10/03 11:44:27;;;;;;;6.77;1.30;;;;;;;15.64;94.94;101680.97;5036914;28;21037;-71
2022/10/03 11:47:19;;;;;;;22.67;1.70;;;;;;;15.87;92.84;101690.00;5043094;28;20978;-70
2022/10/03 11:50:17;;;;;;;8.73;1.30;;;;;;;15.78;90.72;101680.13;5049125;28;20461;-70
2022/10/03 11:52:58;;;;;;;5.87;1.23;;;;;;;15.66;90.04;101683.38;5047168;28;20490;-71
2022/10/03 11:55:32;;;;;;;4.00;1.30;;;;;;;15.50;91.87;101676.63;5054044;28;20490;-70
2022/10/03 11:58:15;;;;;;;17.67;1.63;;;;;;;15.21;94.67;101682.44;5054170;28;20480;-69
2022/10/03 12:00:46;;;;;;;3.20;0.80;;;;;;;15.20;95.52;101675.38;5054766;28;20426;-73
2022/10/03 12:03:21;;;;;;;5.13;1.20;;;;;;;15.24;96.24;101674.44;5055102;28;20438;-71
2022/10/03 12:08:53;;;;;;;6.87;1.13;;;;;;;15.37;96.41;101664.63;5054437;28;20477;-71
2022/10/03 12:08:55;;;;;;;6.80;1.27;;;;;;;15.73;94.40;101661.91;5054409;28;20502;-70
2022/10/03 12:11:27;;;;;;;19.50;2.27;;;;;;;16.73;89.84;101660.75;5054723;28;20426;-71
2022/10/03 12:14:20;;;;;;;3.73;0.87;;;;;;;17.93;82.29;101653.03;5054337;28;20426;-72
2022/10/03 12:17:02;;;;;;;7.13;1.23;;;;;;;18.39;78.67;101650.38;5054557;28;20426;-71
2022/10/03 12:19:33;;;;;;;4.50;0.93;;;;;;;17.90;76.73;101660.00;5054913;28;20469;-71
2022/10/03 12:22:07;;;;;;;4.70;1.03;;;;;;;17.75;76.21;101644.88;5054460;28;20476;-72
2022/10/03 12:24:36;;;;;;;3.07;0.70;;;;;;;17.37;77.54;101658.34;5054028;28;20990;-70
2022/10/03 12:27:14;;;;;;;3.93;1.03;;;;;;;16.87;79.99;101651.31;5054376;28;20496;-70
2022/10/03 12:29:57;;;;;;;6.10;0.90;;;;;;;16.59;80.27;101655.34;5054366;28;20426;-70
2022/10/03 12:32:36;;;;;;;5.87;1.00;;;;;;;16.61;81.73;101644.94;5054297;28;20437;-70
2022/10/03 12:35:16;;;;;;;8.33;1.43;;;;;;;17.20;79.39;101650.91;5054063;28;20486;-70
2022/10/03 12:38:02;;;;;;;3.70;0.63;;;;;;;17.16;78.30;101658.16;5054226;28;20430;-70
2022/10/03 12:40:33;;;;;;;5.17;1.03;;;;;;;17.20;77.30;101642.69;5054112;28;20445;-71
2022/10/03 12:43:16;;;;;;;3.27;0.70;;;;;;;16.97;78.91;101649.41;5054043;28;20430;-71
2022/10/03 12:45:49;;;;;;;5.70;0.70;;;;;;;17.03;78.50;101632.53;5054042;28;20496;-70
2022/10/03 12:48:44;;;;;;;3.63;0.70;;;;;;;16.93;79.66;101641.03;5054073;28;20434;-70
2022/10/03 12:51:21;;;;;;;3.30;0.83;;;;;;;16.97;77.57;101647.50;5053991;28;20466;-69
2022/10/03 12:53:59;;;;;;;3.30;0.77;;;;;;;17.23;77.72;101646.75;5053917;28;20790;-71
2022/10/03 12:56:36;;;;;;;4.80;0.87;;;;;;;18.15;72.26;101647.38;5053707;28;20478;-70
2022/10/03 12:59:13;;;;;;;5.50;0.80;;;;;;;18.89;67.61;101635.97;5053593;28;20915;-70
2022/10/03 13:01:53;;;;;;;4.20;1.00;;;;;;;19.29;64.77;101654.78;5053650;28;20434;-70
2022/10/03 13:04:34;;;;;;;3.13;0.60;;;;;;;18.94;66.96;101645.94;5053601;28;20494;-71
2022/10/03 13:07:17;;;;;;;2.70;0.40;;;;;;;18.37;66.86;101655.41;5053377;28;20934;-70